createdAt,value
2023-01-02T00:02:08.373Z,86.48
2023-01-02T00:04:35.264Z,86.67
2023-01-02T00:07:02.260Z,86.16
2023-01-02T00:09:29.061Z,86.82
2023-01-02T00:11:55.878Z,85.51
2023-01-02T00:14:23.226Z,85.85
2023-01-02T00:16:50.074Z,85.76
2023-01-02T00:19:17.201Z,85.25
2023-01-02T00:21:44.128Z,86.00
2023-01-02T00:24:11.070Z,86.26
2023-01-02T00:26:38.079Z,86.87
2023-01-02T00:29:07.685Z,87.43
2023-01-02T00:31:34.559Z,86.73
2023-01-02T00:34:01.403Z,87.23
2023-01-02T00:36:28.405Z,86.61
2023-01-02T00:38:58.908Z,87.49
2023-01-02T00:41:25.916Z,87.07
2023-01-02T00:43:52.965Z,87.21
2023-01-02T00:46:19.894Z,88.11
2023-01-02T00:48:46.980Z,87.73
2023-01-02T00:51:13.923Z,86.49
2023-01-02T00:53:41.012Z,87.50
2023-01-02T00:56:08.240Z,87.02
2023-01-02T00:58:35.310Z,88.60
2023-01-02T01:01:02.292Z,87.35
2023-01-02T01:03:29.542Z,86.28
2023-01-02T01:05:56.506Z,86.72
2023-01-02T01:08:23.318Z,87.25
2023-01-02T01:10:51.970Z,88.35
2023-01-02T01:13:18.960Z,87.85
2023-01-02T01:15:45.846Z,87.60
2023-01-02T01:18:12.694Z,87.42
2023-01-02T01:20:40.213Z,88.38
2023-01-02T01:23:07.075Z,89.14
2023-01-02T01:25:34.014Z,87.70
2023-01-02T01:28:00.860Z,87.51
2023-01-02T01:30:28.282Z,87.08
2023-01-02T01:32:55.181Z,87.55
2023-01-02T01:35:22.422Z,87.67
2023-01-02T01:37:49.533Z,87.77
2023-01-02T01:40:16.434Z,86.80
2023-01-02T01:42:43.337Z,86.83
2023-01-02T01:45:15.318Z,87.63
2023-01-02T01:47:53.902Z,85.87
2023-01-02T01:50:32.565Z,86.35
2023-01-02T01:53:29.165Z,86.93
2023-01-02T01:56:04.467Z,87.51
2023-01-02T01:58:39.642Z,88.18
2023-01-02T02:03:44.790Z,88.12
2023-01-02T02:06:12.029Z,87.95
2023-01-02T02:08:49.926Z,87.81
2023-01-02T02:11:18.065Z,87.22
2023-01-02T02:13:44.917Z,86.91
2023-01-02T02:16:34.108Z,87.15
2023-01-02T02:19:03.809Z,86.33
2023-01-02T02:21:45.805Z,85.94
2023-01-02T02:24:21.869Z,85.98
2023-01-02T02:27:10.103Z,85.44
2023-01-02T02:30:04.381Z,85.53
2023-01-02T02:33:02.183Z,85.74
2023-01-02T02:35:48.858Z,85.58
2023-01-02T02:38:45.408Z,85.95
2023-01-02T02:41:32.535Z,85.50
2023-01-02T02:44:05.328Z,85.21
2023-01-02T02:46:34.965Z,85.90
2023-01-02T02:49:01.685Z,85.52
2023-01-02T02:51:52.777Z,85.54
2023-01-02T02:54:48.908Z,84.89
2023-01-02T02:57:16.749Z,85.16
2023-01-02T02:59:43.706Z,85.01
2023-01-02T03:02:16.513Z,85.34
2023-01-02T03:04:55.026Z,86.07
2023-01-02T03:07:48.209Z,86.78
2023-01-02T03:10:42.475Z,86.76
2023-01-02T03:13:24.607Z,86.22
2023-01-02T03:16:13.387Z,86.75
2023-01-02T03:18:59.626Z,85.91
2023-01-02T03:21:41.698Z,86.59
2023-01-02T03:24:12.834Z,86.51
2023-01-02T03:26:45.396Z,86.13
2023-01-02T03:29:30.915Z,86.45
2023-01-02T03:32:01.745Z,86.26
2023-01-02T03:34:32.842Z,86.27
2023-01-02T03:37:06.899Z,86.94
2023-01-02T03:39:40.043Z,87.00
2023-01-02T03:42:14.900Z,86.56
2023-01-02T03:44:49.863Z,86.19
2023-01-02T03:47:54.224Z,85.21
2023-01-02T03:50:49.549Z,85.40
2023-01-02T03:53:16.791Z,85.35
2023-01-02T03:55:58.047Z,85.13
2023-01-02T03:58:38.580Z,85.81
2023-01-02T04:01:09.658Z,85.50
2023-01-02T04:03:46.825Z,85.49
2023-01-02T04:06:20.837Z,85.47
2023-01-02T04:09:07.981Z,86.10
2023-01-02T04:11:35.888Z,85.50
2023-01-02T04:14:12.434Z,85.70
2023-01-02T04:16:40.696Z,85.46
2023-01-02T04:19:19.062Z,86.22
2023-01-02T04:21:48.806Z,85.66
2023-01-02T04:24:41.910Z,85.56
2023-01-02T04:27:14.551Z,86.76
2023-01-02T04:29:41.615Z,86.73
2023-01-02T04:32:23.349Z,86.48
2023-01-02T04:34:52.560Z,86.59
2023-01-02T04:37:39.112Z,87.16
2023-01-02T04:40:15.511Z,87.79
2023-01-02T04:42:42.974Z,87.20
2023-01-02T04:45:10.327Z,87.42
2023-01-02T04:47:37.165Z,87.76
2023-01-02T04:50:06.682Z,87.28
2023-01-02T04:52:36.981Z,87.53
2023-01-02T04:55:05.578Z,86.87
2023-01-02T04:57:32.440Z,86.97
2023-01-02T04:59:59.384Z,86.48
2023-01-02T05:02:26.617Z,87.08
2023-01-02T05:04:53.659Z,87.29
2023-01-02T05:07:20.596Z,86.73
2023-01-02T05:09:47.457Z,86.98
2023-01-02T05:12:14.370Z,86.52
2023-01-02T05:14:41.283Z,87.40
2023-01-02T05:17:08.199Z,87.13
2023-01-02T05:19:35.265Z,86.87
2023-01-02T05:22:20.679Z,86.74
2023-01-02T05:24:47.760Z,87.05
2023-01-02T05:27:14.773Z,86.26
2023-01-02T05:29:41.598Z,86.15
2023-01-02T05:32:08.508Z,86.39
2023-01-02T05:34:35.484Z,86.12
2023-01-02T05:37:02.304Z,85.88
2023-01-02T05:39:29.126Z,86.08
2023-01-02T05:41:55.976Z,86.36
2023-01-02T05:44:22.997Z,86.51
2023-01-02T05:46:50.145Z,86.40
2023-01-02T05:49:17.026Z,85.65
2023-01-02T05:51:43.860Z,85.25
2023-01-02T05:54:11.296Z,84.74
2023-01-02T05:56:38.148Z,85.70
2023-01-02T05:59:08.504Z,85.24
2023-01-02T06:01:35.586Z,85.18
2023-01-02T06:04:02.712Z,85.27
2023-01-02T06:06:36.058Z,85.54
2023-01-02T06:09:04.756Z,85.53
2023-01-02T06:11:33.725Z,84.58
2023-01-02T06:14:00.811Z,84.47
2023-01-02T06:16:29.443Z,84.71
2023-01-02T06:18:56.667Z,84.53
2023-01-02T06:21:23.984Z,84.71
2023-01-02T06:23:56.902Z,84.12
2023-01-02T06:26:28.771Z,84.44
2023-01-02T06:28:58.362Z,83.77
2023-01-02T06:31:27.631Z,83.64
2023-01-02T06:33:59.383Z,84.06
2023-01-02T06:36:29.627Z,80.87
2023-01-02T06:38:57.371Z,75.27
2023-01-02T06:41:24.346Z,69.31
2023-01-02T06:43:51.960Z,66.08
2023-01-02T06:46:21.143Z,61.25
2023-01-02T06:48:48.273Z,58.45
2023-01-02T06:51:18.164Z,57.07
2023-01-02T06:53:45.428Z,55.00
2023-01-02T06:56:13.769Z,53.47
2023-01-02T06:58:40.696Z,51.70
2023-01-02T07:01:10.536Z,50.54
2023-01-02T07:03:37.516Z,48.14
2023-01-02T07:06:06.724Z,49.52
2023-01-02T07:08:33.953Z,47.44
2023-01-02T07:11:22.255Z,45.13
2023-01-02T07:13:51.533Z,45.44
2023-01-02T07:16:20.482Z,43.26
2023-01-02T07:18:47.968Z,40.77
2023-01-02T07:21:16.673Z,40.11
2023-01-02T07:23:43.556Z,39.46
2023-01-02T07:26:10.938Z,39.01
2023-01-02T07:28:38.406Z,38.65
2023-01-02T07:31:08.158Z,37.11
2023-01-02T07:33:35.398Z,35.59
2023-01-02T07:36:05.084Z,35.39
2023-01-02T07:38:32.395Z,35.21
2023-01-02T07:40:59.623Z,34.65
2023-01-02T07:43:26.999Z,34.84
2023-01-02T07:45:53.987Z,35.17
2023-01-02T07:48:20.899Z,33.96
2023-01-02T07:50:47.829Z,32.65
2023-01-02T07:53:14.660Z,32.11
2023-01-02T07:55:41.560Z,31.22
2023-01-02T07:58:08.382Z,30.85
2023-01-02T08:00:35.216Z,32.01
2023-01-02T08:03:02.442Z,31.11
2023-01-02T08:05:29.416Z,31.01
2023-01-02T08:07:56.202Z,31.15
2023-01-02T08:10:23.284Z,30.92
2023-01-02T08:12:50.163Z,32.37
2023-01-02T08:15:17.059Z,32.99
2023-01-02T08:17:44.006Z,33.34
2023-01-02T08:20:12.056Z,34.58
2023-01-02T08:22:38.983Z,35.16
2023-01-02T08:25:06.794Z,36.59
2023-01-02T08:27:33.785Z,39.05
2023-01-02T08:30:00.720Z,39.87
2023-01-02T08:32:27.751Z,40.14
2023-01-02T08:34:54.661Z,40.96
2023-01-02T08:37:21.476Z,42.10
2023-01-02T08:39:48.660Z,41.79
2023-01-02T08:42:15.693Z,42.51
2023-01-02T08:44:43.830Z,42.77
2023-01-02T08:47:10.799Z,43.27
2023-01-02T08:49:37.848Z,43.19
2023-01-02T08:52:05.427Z,43.50
2023-01-02T08:54:32.623Z,44.70
2023-01-02T08:56:59.642Z,45.43
2023-01-02T08:59:27.130Z,46.14
2023-01-02T09:01:54.903Z,45.63
2023-01-02T09:04:21.921Z,45.20
2023-01-02T09:06:49.064Z,44.08
2023-01-02T09:09:17.375Z,43.88
2023-01-02T09:11:51.272Z,43.50
2023-01-02T09:14:20.754Z,43.15
2023-01-02T09:16:48.107Z,45.00
2023-01-02T09:19:14.931Z,44.28
2023-01-02T09:21:41.908Z,45.31
2023-01-02T09:24:09.385Z,44.39
2023-01-02T09:26:38.182Z,45.63
2023-01-02T09:29:05.365Z,45.25
2023-01-02T09:31:32.359Z,45.35
2023-01-02T09:33:59.444Z,44.47
2023-01-02T09:36:26.731Z,45.00
2023-01-02T09:38:55.432Z,45.01
2023-01-02T09:41:22.150Z,44.50
2023-01-02T09:43:54.182Z,45.16
2023-01-02T09:46:28.223Z,44.39
2023-01-02T09:48:55.151Z,44.68
2023-01-02T09:51:22.472Z,45.74
2023-01-02T09:53:49.380Z,44.59
2023-01-02T09:56:35.029Z,44.14
2023-01-02T09:59:20.287Z,43.41
2023-01-02T10:02:03.919Z,43.99
2023-01-02T10:04:43.494Z,43.45
2023-01-02T10:07:35.240Z,43.21
2023-01-02T10:10:26.398Z,43.63
2023-01-02T10:13:07.731Z,42.50
2023-01-02T10:15:36.471Z,42.82
2023-01-02T10:18:23.384Z,42.06
2023-01-02T10:20:58.101Z,43.06
2023-01-02T10:23:35.496Z,42.91
2023-01-02T10:26:18.394Z,43.31
2023-01-02T10:29:03.661Z,42.75
2023-01-02T10:31:51.771Z,43.36
2023-01-02T10:34:21.304Z,43.36
2023-01-02T10:36:49.518Z,43.43
2023-01-02T10:39:18.062Z,43.21
2023-01-02T10:41:50.797Z,42.17
2023-01-02T10:44:25.050Z,42.53
2023-01-02T10:46:53.008Z,43.11
2023-01-02T10:49:21.531Z,43.40
2023-01-02T10:52:05.270Z,43.38
2023-01-02T10:54:53.444Z,43.84
2023-01-02T10:57:44.554Z,44.28
2023-01-02T11:00:25.687Z,45.12
2023-01-02T11:03:01.464Z,45.18
2023-01-02T11:05:31.077Z,44.50
2023-01-02T11:07:58.895Z,44.30
2023-01-02T11:10:31.295Z,43.92
2023-01-02T11:13:03.376Z,44.10
2023-01-02T11:15:34.949Z,44.63
2023-01-02T11:18:11.122Z,44.66
2023-01-02T11:20:38.157Z,44.75
2023-01-02T11:23:06.361Z,44.83
2023-01-02T11:25:42.301Z,45.62
2023-01-02T11:28:32.726Z,45.00
2023-01-02T11:31:06.313Z,44.40
2023-01-02T11:33:36.436Z,45.38
2023-01-02T11:36:16.286Z,44.34
2023-01-02T11:38:54.511Z,44.98
2023-01-02T11:42:07.689Z,44.14
2023-01-02T11:44:43.923Z,45.49
2023-01-02T11:47:13.428Z,45.16
2023-01-02T11:49:45.924Z,45.67
2023-01-02T11:52:16.888Z,45.70
2023-01-02T11:54:52.888Z,45.41
2023-01-02T11:57:25.400Z,46.77
2023-01-02T11:59:54.376Z,47.53
2023-01-02T12:02:27.280Z,47.58
2023-01-02T12:04:55.133Z,48.01
2023-01-02T12:07:40.271Z,47.54
2023-01-02T12:10:20.875Z,48.30
2023-01-02T12:12:56.696Z,48.07
2023-01-02T12:15:44.692Z,48.55
2023-01-02T12:18:20.729Z,48.48
2023-01-02T12:20:57.355Z,48.29
2023-01-02T12:23:32.129Z,49.04
2023-01-02T12:26:12.773Z,49.32
2023-01-02T12:28:45.593Z,54.87
2023-01-02T12:31:19.654Z,51.20
2023-01-02T12:34:17.066Z,51.52
2023-01-02T12:37:19.437Z,51.62
2023-01-02T12:40:05.016Z,51.67
2023-01-02T12:42:49.163Z,51.73
2023-01-02T12:45:26.166Z,50.81
2023-01-02T12:48:11.424Z,50.91
2023-01-02T12:51:08.843Z,51.01
2023-01-02T12:54:20.731Z,50.82
2023-01-02T12:56:54.065Z,50.71
2023-01-02T12:59:42.448Z,50.98
2023-01-02T13:02:27.933Z,50.85
2023-01-02T13:05:09.185Z,51.21
2023-01-02T13:07:50.676Z,51.31
2023-01-02T13:10:22.568Z,51.97
2023-01-02T13:12:49.805Z,52.06
2023-01-02T13:15:28.237Z,52.48
2023-01-02T13:17:57.957Z,52.93
2023-01-02T13:20:43.284Z,52.68
2023-01-02T13:23:28.535Z,52.96
2023-01-02T13:26:03.105Z,52.48
2023-01-02T13:28:30.093Z,52.72
2023-01-02T13:31:44.163Z,52.58
2023-01-02T13:33:54.816Z,52.65
2023-01-02T13:36:29.232Z,53.27
2023-01-02T13:39:03.122Z,53.08
2023-01-02T13:41:58.091Z,53.45
2023-01-02T13:44:36.405Z,53.35
2023-01-02T13:47:16.468Z,53.98
2023-01-02T13:50:25.427Z,54.13
2023-01-02T13:53:30.116Z,54.81
2023-01-02T13:55:59.643Z,54.41
2023-01-02T13:58:45.526Z,54.60
2023-01-02T14:01:51.413Z,55.18
2023-01-02T14:04:19.930Z,55.84
2023-01-02T14:06:53.902Z,55.82
2023-01-02T14:09:23.321Z,56.20
2023-01-02T14:11:56.812Z,56.47
2023-01-02T14:14:42.081Z,56.49
2023-01-02T14:17:46.206Z,57.37
2023-01-02T14:20:18.849Z,57.48
2023-01-02T14:22:52.974Z,57.89
2023-01-02T14:25:21.078Z,57.77
2023-01-02T14:27:55.191Z,58.95
2023-01-02T14:30:24.685Z,58.94
2023-01-02T14:32:53.355Z,59.47
2023-01-02T14:35:20.230Z,59.08
2023-01-02T14:38:06.359Z,59.81
2023-01-02T14:40:40.058Z,60.19
2023-01-02T14:43:33.986Z,60.13
2023-01-02T14:46:21.518Z,60.93
2023-01-02T14:49:24.955Z,61.11
2023-01-02T14:52:01.306Z,61.63
2023-01-02T14:54:40.161Z,61.57
2023-01-02T14:57:30.041Z,61.74
2023-01-02T14:59:59.084Z,61.46
2023-01-02T15:02:36.934Z,61.22
2023-01-02T15:05:18.314Z,61.56
2023-01-02T15:07:51.856Z,62.08
2023-01-02T15:10:21.076Z,80.12
2023-01-02T15:13:07.727Z,64.01
2023-01-02T15:15:47.904Z,62.91
2023-01-02T15:18:33.651Z,63.13
2023-01-02T15:21:08.879Z,63.86
2023-01-02T15:23:37.557Z,63.66
2023-01-02T15:26:32.017Z,64.78
2023-01-02T15:29:07.085Z,64.53
2023-01-02T15:31:34.564Z,65.16
2023-01-02T15:34:01.768Z,64.84
2023-01-02T15:36:36.668Z,65.30
2023-01-02T15:39:42.759Z,65.14
2023-01-02T15:42:34.131Z,64.73
2023-01-02T15:45:10.058Z,65.15
2023-01-02T15:47:44.478Z,65.19
2023-01-02T15:50:16.244Z,65.60
2023-01-02T15:52:44.447Z,65.49
2023-01-02T15:55:19.159Z,66.57
2023-01-02T15:57:52.140Z,66.51
2023-01-02T16:00:42.020Z,67.11
2023-01-02T16:03:11.667Z,66.88
2023-01-02T16:06:03.079Z,67.42
2023-01-02T16:08:35.841Z,67.20
2023-01-02T16:11:05.319Z,68.27
2023-01-02T16:14:00.161Z,68.80
2023-01-02T16:16:57.172Z,69.40
2023-01-02T16:19:48.100Z,69.45
2023-01-02T16:22:20.396Z,68.64
2023-01-02T16:25:10.667Z,69.31
2023-01-02T16:28:35.270Z,69.72
2023-01-02T16:31:14.677Z,69.25
2023-01-02T16:33:42.527Z,69.45
2023-01-02T16:36:15.340Z,69.77
2023-01-02T16:38:56.411Z,70.21
2023-01-02T16:41:37.212Z,71.06
2023-01-02T16:44:13.241Z,70.21
2023-01-02T16:46:51.120Z,70.65
2023-01-02T16:49:21.583Z,69.59
2023-01-02T16:51:53.623Z,70.04
2023-01-02T16:54:20.907Z,69.96
2023-01-02T16:56:50.127Z,69.80
2023-01-02T16:59:16.957Z,69.84
2023-01-02T17:01:43.983Z,69.89
2023-01-02T17:04:14.088Z,70.27
2023-01-02T17:06:40.988Z,70.43
2023-01-02T17:09:07.817Z,70.07
2023-01-02T17:11:34.727Z,69.88
2023-01-02T17:14:02.018Z,70.14
2023-01-02T17:16:29.041Z,69.85
2023-01-02T17:18:55.936Z,70.41
2023-01-02T17:21:26.254Z,70.16
2023-01-02T17:23:57.717Z,70.73
2023-01-02T17:26:24.487Z,70.97
2023-01-02T17:28:51.286Z,71.25
2023-01-02T17:31:23.993Z,71.04
2023-01-02T17:33:52.431Z,71.42
2023-01-02T17:36:19.201Z,71.57
2023-01-02T17:38:46.118Z,71.26
2023-01-02T17:41:12.960Z,71.72
2023-01-02T17:43:39.768Z,71.54
2023-01-02T17:47:00.766Z,71.86
2023-01-02T17:49:13.444Z,71.79
2023-01-02T17:51:40.351Z,71.93
2023-01-02T17:54:07.171Z,71.74
2023-01-02T17:56:34.048Z,72.20
2023-01-02T17:59:00.998Z,71.92
2023-01-02T18:01:27.919Z,71.61
2023-01-02T18:03:54.851Z,71.67
2023-01-02T18:06:21.837Z,71.64
2023-01-02T18:08:48.675Z,71.72
2023-01-02T18:11:17.851Z,72.01
2023-01-02T18:13:53.273Z,71.21
2023-01-02T18:16:24.078Z,71.59
2023-01-02T18:18:51.466Z,71.72
2023-01-02T18:21:22.161Z,71.87
2023-01-02T18:23:52.396Z,71.97
2023-01-02T18:26:19.920Z,72.29
2023-01-02T18:29:00.370Z,72.71
2023-01-02T18:31:41.916Z,72.75
2023-01-02T18:34:47.729Z,72.71
2023-01-02T18:37:21.188Z,73.10
2023-01-02T18:39:49.064Z,72.87
2023-01-02T18:42:23.078Z,73.18
2023-01-02T18:44:52.088Z,74.90
2023-01-02T18:47:37.087Z,74.98
2023-01-02T18:50:16.940Z,75.63
2023-01-02T18:52:48.678Z,75.98
2023-01-02T18:55:20.167Z,76.54
2023-01-02T18:57:53.998Z,76.44
2023-01-02T19:00:29.693Z,76.53
2023-01-02T19:03:01.535Z,76.21
2023-01-02T19:05:30.148Z,76.48
2023-01-02T19:08:22.801Z,77.19
2023-01-02T19:10:55.406Z,76.98
2023-01-02T19:13:27.761Z,76.99
2023-01-02T19:16:00.869Z,77.53
2023-01-02T19:18:37.061Z,77.68
2023-01-02T19:21:13.469Z,76.74
2023-01-02T19:23:48.510Z,77.29
2023-01-02T19:26:38.352Z,77.96
2023-01-02T19:29:11.390Z,78.64
2023-01-02T19:32:14.413Z,80.28
2023-01-02T19:34:47.303Z,79.53
2023-01-02T19:37:14.808Z,80.07
2023-01-02T19:39:52.045Z,79.45
2023-01-02T19:42:19.487Z,80.11
2023-01-02T19:45:09.577Z,79.91
2023-01-02T19:47:38.329Z,79.67
2023-01-02T19:50:08.201Z,79.71
2023-01-02T19:52:35.908Z,80.10
2023-01-02T19:55:04.142Z,80.02
2023-01-02T19:57:31.047Z,79.86
2023-01-02T20:00:01.428Z,79.76
2023-01-02T20:02:28.830Z,79.83
2023-01-02T20:04:55.960Z,78.85
2023-01-02T20:07:24.737Z,79.42
2023-01-02T20:09:52.903Z,78.74
2023-01-02T20:12:40.829Z,78.55
2023-01-02T20:15:20.964Z,78.80
2023-01-02T20:17:48.324Z,78.43
2023-01-02T20:20:18.166Z,79.15
2023-01-02T20:22:45.917Z,78.23
2023-01-02T20:25:14.691Z,78.15
2023-01-02T20:27:41.873Z,78.40
2023-01-02T20:30:10.017Z,78.45
2023-01-02T20:32:37.144Z,79.10
2023-01-02T20:35:05.192Z,78.94
2023-01-02T20:37:32.132Z,78.36
2023-01-02T20:39:59.110Z,77.95
2023-01-02T20:42:26.129Z,78.09
2023-01-02T20:44:53.000Z,78.31
2023-01-02T20:47:20.435Z,78.65
2023-01-02T20:49:47.392Z,78.85
2023-01-02T20:52:14.251Z,79.46
2023-01-02T20:54:41.257Z,79.02
2023-01-02T20:57:08.058Z,79.10
2023-01-02T20:59:34.956Z,78.42
2023-01-02T21:02:01.868Z,79.59
2023-01-02T21:04:36.132Z,79.63
2023-01-02T21:07:04.326Z,80.30
2023-01-02T21:09:31.343Z,80.34
2023-01-02T21:11:58.229Z,80.27
2023-01-02T21:14:25.078Z,80.22
2023-01-02T21:16:51.956Z,80.13
2023-01-02T21:19:18.868Z,80.41
2023-01-02T21:21:45.836Z,80.50
2023-01-02T21:24:12.695Z,79.96
2023-01-02T21:26:39.475Z,79.73
2023-01-02T21:29:06.324Z,79.52
2023-01-02T21:31:33.229Z,79.28
2023-01-02T21:34:00.110Z,78.86
2023-01-02T21:36:27.208Z,79.29
2023-01-02T21:38:54.208Z,78.91
2023-01-02T21:41:39.399Z,79.29
2023-01-02T21:44:06.205Z,79.42
2023-01-02T21:46:33.058Z,79.14
2023-01-02T21:49:00.123Z,78.60
2023-01-02T21:51:32.478Z,78.36
2023-01-02T21:54:00.047Z,78.47
2023-01-02T21:56:27.303Z,78.56
2023-01-02T21:58:55.169Z,78.14
2023-01-02T22:01:22.330Z,78.36
2023-01-02T22:03:49.463Z,78.29
2023-01-02T22:06:18.411Z,78.19
2023-01-02T22:08:45.357Z,78.10
2023-01-02T22:11:36.338Z,78.22
2023-01-02T22:14:03.150Z,78.62
2023-01-02T22:16:30.089Z,78.37
2023-01-02T22:18:56.937Z,77.97
2023-01-02T22:21:23.727Z,77.62
2023-01-02T22:23:50.625Z,77.74
2023-01-02T22:26:18.729Z,77.51
2023-01-02T22:28:45.700Z,77.14
2023-01-02T22:31:15.858Z,76.91
2023-01-02T22:33:43.108Z,76.80
2023-01-02T22:36:10.149Z,77.03
2023-01-02T22:38:43.948Z,77.04
2023-01-02T22:41:22.561Z,76.52
2023-01-02T22:43:49.616Z,76.41
2023-01-02T22:46:24.202Z,76.75
2023-01-02T22:48:51.828Z,76.39
2023-01-02T22:51:25.958Z,76.51
2023-01-02T22:54:03.664Z,76.97
2023-01-02T22:56:31.516Z,76.89
2023-01-02T22:58:58.384Z,77.37
2023-01-02T23:01:30.203Z,76.99
2023-01-02T23:03:58.451Z,77.74
2023-01-02T23:06:25.637Z,77.36
2023-01-02T23:08:53.189Z,76.70
2023-01-02T23:11:21.925Z,77.27
2023-01-02T23:13:56.101Z,77.34
2023-01-02T23:16:42.182Z,78.88
2023-01-02T23:19:14.959Z,79.00
2023-01-02T23:21:44.573Z,79.66
2023-01-02T23:24:13.730Z,79.35
2023-01-02T23:26:44.303Z,79.48
2023-01-02T23:29:12.674Z,79.26
2023-01-02T23:31:45.446Z,79.81
2023-01-02T23:34:14.550Z,80.16
2023-01-02T23:36:42.351Z,80.60
2023-01-02T23:39:14.579Z,82.88
2023-01-02T23:41:43.114Z,83.24
2023-01-02T23:44:11.304Z,84.03
2023-01-02T23:46:38.590Z,84.93
2023-01-02T23:49:07.311Z,84.22
2023-01-02T23:51:34.549Z,84.80
2023-01-02T23:54:01.585Z,84.50
2023-01-02T23:56:34.804Z,84.82
2023-01-02T23:59:04.643Z,84.92
